createdAt,value
2018-04-24T00:02:23.154Z,61.30
2018-04-24T00:04:54.503Z,61.40
2018-04-24T00:07:25.850Z,61.50
2018-04-24T00:09:55.619Z,61.40
2018-04-24T00:12:25.475Z,61.40
2018-04-24T00:14:55.186Z,61.30
2018-04-24T00:17:24.901Z,61.20
2018-04-24T00:19:56.241Z,61.30
2018-04-24T00:22:26.770Z,61.20
2018-04-24T00:24:56.484Z,61.20
2018-04-24T00:27:26.192Z,61.10
2018-04-24T00:29:56.116Z,61.20
2018-04-24T00:32:25.816Z,61.20
2018-04-24T00:34:55.734Z,61.10
2018-04-24T00:37:25.407Z,61.00
2018-04-24T00:39:55.147Z,61.10
2018-04-24T00:42:26.084Z,61.00
2018-04-24T00:45:26.516Z,60.80
2018-04-24T00:47:56.226Z,61.00
2018-04-24T00:50:26.137Z,61.10
2018-04-24T00:52:56.241Z,61.00
2018-04-24T00:55:26.172Z,60.90
2018-04-24T00:57:56.086Z,61.00
2018-04-24T01:00:25.797Z,61.00
2018-04-24T01:02:57.149Z,60.90
2018-04-24T01:05:26.989Z,60.80
2018-04-24T01:07:57.575Z,61.10
2018-04-24T01:10:27.244Z,61.10
2018-04-24T01:12:57.007Z,61.20
2018-04-24T01:15:26.716Z,61.00
2018-04-24T01:17:58.067Z,61.40
2018-04-24T01:20:30.640Z,61.50
2018-04-24T01:23:00.511Z,61.50
2018-04-24T01:25:31.089Z,61.40
2018-04-24T01:28:01.201Z,61.50
2018-04-24T01:30:31.124Z,61.60
2018-04-24T01:33:00.831Z,61.60
2018-04-24T01:35:30.535Z,61.90
2018-04-24T01:38:02.090Z,62.00
2018-04-24T01:40:32.547Z,62.30
2018-04-24T01:43:03.759Z,62.30
2018-04-24T01:45:33.879Z,62.30
2018-04-24T01:48:05.227Z,62.40
2018-04-24T01:50:34.937Z,62.30
2018-04-24T01:53:05.615Z,62.60
2018-04-24T01:55:35.587Z,62.80
2018-04-24T01:58:05.294Z,62.80
2018-04-24T02:00:35.003Z,63.00
2018-04-24T02:03:04.714Z,63.20
2018-04-24T02:05:34.629Z,63.20
2018-04-24T02:08:05.978Z,63.50
2018-04-24T02:10:35.887Z,63.50
2018-04-24T02:13:05.598Z,63.30
2018-04-24T02:15:35.307Z,63.70
2018-04-24T02:18:05.223Z,63.70
2018-04-24T02:20:34.942Z,63.50
2018-04-24T02:23:04.845Z,63.70
2018-04-24T02:25:34.765Z,64.00
2018-04-24T02:28:04.675Z,64.00
2018-04-24T02:30:34.794Z,64.10
2018-04-24T02:33:04.710Z,64.20
2018-04-24T02:35:36.055Z,64.50
2018-04-24T02:38:06.379Z,64.50
2018-04-24T02:40:37.727Z,64.40
2018-04-24T02:43:07.436Z,64.40
2018-04-24T02:45:38.789Z,64.80
2018-04-24T02:48:08.904Z,65.50
2018-04-24T02:50:41.070Z,64.70
2018-04-24T02:53:11.804Z,64.80
2018-04-24T02:55:41.513Z,65.10
2018-04-24T02:58:12.656Z,65.20
2018-04-24T03:00:44.003Z,65.50
2018-04-24T03:03:13.932Z,65.40
2018-04-24T03:05:43.628Z,65.60
2018-04-24T03:08:13.547Z,66.00
2018-04-24T03:10:43.274Z,66.10
2018-04-24T03:13:13.369Z,66.40
2018-04-24T03:15:44.104Z,66.60
2018-04-24T03:18:13.975Z,66.40
2018-04-24T03:20:43.936Z,66.50
2018-04-24T03:23:13.846Z,66.60
2018-04-24T03:25:44.580Z,66.70
2018-04-24T03:28:14.494Z,66.80
2018-04-24T03:30:44.204Z,66.70
2018-04-24T03:33:14.173Z,66.70
2018-04-24T03:35:44.648Z,66.80
2018-04-24T03:38:14.564Z,66.80
2018-04-24T03:40:44.477Z,67.00
2018-04-24T03:43:16.029Z,67.10
2018-04-24T03:45:45.945Z,67.00
2018-04-24T03:48:15.657Z,67.10
2018-04-24T03:50:46.386Z,67.50
2018-04-24T03:53:16.917Z,67.40
2018-04-24T03:55:46.840Z,67.30
2018-04-24T03:58:17.773Z,67.50
2018-04-24T04:00:48.305Z,67.40
2018-04-24T04:03:19.454Z,67.50
2018-04-24T04:05:49.513Z,67.50
2018-04-24T04:08:19.269Z,67.70
2018-04-24T04:10:49.191Z,68.50
2018-04-24T04:13:29.953Z,68.00
2018-04-24T04:16:02.423Z,68.00
2018-04-24T04:22:48.241Z,68.00
2018-04-24T04:25:18.563Z,68.00
2018-04-24T04:27:48.683Z,68.30
2018-04-24T04:30:19.577Z,68.40
2018-04-24T04:32:51.633Z,68.50
2018-04-24T04:35:22.316Z,68.50
2018-04-24T04:37:52.034Z,68.70
2018-04-24T04:40:22.708Z,68.70
2018-04-24T04:42:52.882Z,68.70
2018-04-24T04:45:22.588Z,68.60
2018-04-24T04:47:52.357Z,68.70
2018-04-24T04:50:22.277Z,68.70
2018-04-24T04:52:52.129Z,68.80
2018-04-24T04:55:21.841Z,68.60
2018-04-24T04:57:53.185Z,68.90
2018-04-24T05:00:23.304Z,68.90
2018-04-24T05:02:53.219Z,69.00
2018-04-24T05:05:23.343Z,69.30
2018-04-24T05:07:53.250Z,69.40
2018-04-24T05:10:24.660Z,70.40
2018-04-24T05:12:54.667Z,70.40
2018-04-24T05:15:24.432Z,70.40
2018-04-24T05:17:54.241Z,70.90
2018-04-24T05:20:24.461Z,70.60
2018-04-24T05:22:55.207Z,70.80
2018-04-24T05:25:24.910Z,73.80
2018-04-24T05:27:55.228Z,72.70
2018-04-24T05:30:25.147Z,72.60
2018-04-24T05:32:55.000Z,72.20
2018-04-24T05:35:25.117Z,72.10
2018-04-24T05:37:54.883Z,71.90
2018-04-24T05:40:24.594Z,72.10
2018-04-24T05:42:55.946Z,72.10
2018-04-24T05:45:25.731Z,72.10
2018-04-24T05:47:56.128Z,72.20
2018-04-24T05:50:26.096Z,72.30
2018-04-24T05:52:56.221Z,72.20
2018-04-24T05:55:25.928Z,73.10
2018-04-24T05:57:55.659Z,72.80
2018-04-24T06:00:25.545Z,73.00
2018-04-24T06:02:56.897Z,73.30
2018-04-24T06:05:27.224Z,73.30
2018-04-24T06:07:57.287Z,73.40
2018-04-24T06:10:30.369Z,73.50
2018-04-24T06:13:00.038Z,73.30
2018-04-24T06:15:29.744Z,73.50
2018-04-24T06:18:01.094Z,73.40
2018-04-24T06:20:31.209Z,73.40
2018-04-24T06:23:02.559Z,74.00
2018-04-24T06:25:32.884Z,74.00
2018-04-24T06:28:03.001Z,73.80
2018-04-24T06:30:34.488Z,73.90
2018-04-24T06:33:04.263Z,73.80
2018-04-24T06:35:35.643Z,74.00
2018-04-24T06:38:05.474Z,74.00
2018-04-24T06:40:35.439Z,74.20
2018-04-24T06:43:05.417Z,74.10
2018-04-24T06:45:35.472Z,74.00
2018-04-24T06:48:05.343Z,74.00
2018-04-24T06:50:35.304Z,74.10
2018-04-24T06:53:08.086Z,74.60
2018-04-24T06:55:38.202Z,74.50
2018-04-24T06:58:07.911Z,74.30
2018-04-24T07:00:38.037Z,74.30
2018-04-24T07:03:08.939Z,74.30
2018-04-24T07:05:38.864Z,74.30
2018-04-24T07:08:08.824Z,74.30
2018-04-24T07:10:38.714Z,74.30
2018-04-24T07:13:10.877Z,74.30
2018-04-24T07:15:42.227Z,74.60
2018-04-24T07:18:14.166Z,74.50
2018-04-24T07:20:54.431Z,74.40
2018-04-24T07:23:25.281Z,74.40
2018-04-24T07:25:55.195Z,74.20
2018-04-24T07:28:25.056Z,74.30
2018-04-24T07:30:55.441Z,74.40
2018-04-24T07:33:25.348Z,74.30
2018-04-24T07:35:55.272Z,74.40
2018-04-24T07:38:25.179Z,74.40
2018-04-24T07:40:54.886Z,74.40
2018-04-24T07:43:25.415Z,74.40
2018-04-24T07:46:05.111Z,74.40
2018-04-24T07:48:36.101Z,74.10
2018-04-24T07:51:06.011Z,73.70
2018-04-24T07:53:35.805Z,74.30
2018-04-24T07:56:12.060Z,74.40
2018-04-24T07:58:48.493Z,74.40
2018-04-24T08:01:18.982Z,74.40
2018-04-24T08:03:48.694Z,74.20
2018-04-24T08:06:20.085Z,74.30
2018-04-24T08:08:49.952Z,74.30
2018-04-24T08:11:20.846Z,74.30
2018-04-24T08:14:01.966Z,74.30
2018-04-24T08:16:33.429Z,74.30
2018-04-24T08:19:03.131Z,74.40
2018-04-24T08:21:32.784Z,74.30
2018-04-24T08:24:02.710Z,74.40
2018-04-24T08:26:32.458Z,74.30
2018-04-24T08:29:06.768Z,74.40
2018-04-24T08:31:37.202Z,74.40
2018-04-24T08:34:08.142Z,74.40
2018-04-24T08:36:38.173Z,74.40
2018-04-24T08:39:08.380Z,74.60
2018-04-24T08:41:38.294Z,74.70
2018-04-24T08:44:09.846Z,74.80
2018-04-24T08:46:40.583Z,74.70
2018-04-24T08:49:12.541Z,75.10
2018-04-24T08:51:42.616Z,75.10
2018-04-24T08:54:12.371Z,75.00
2018-04-24T08:56:43.724Z,75.00
2018-04-24T08:59:13.633Z,75.00
2018-04-24T09:01:43.351Z,75.10
2018-04-24T09:04:13.960Z,75.30
2018-04-24T09:06:43.789Z,75.30
2018-04-24T09:09:15.092Z,75.20
2018-04-24T09:11:44.843Z,75.20
2018-04-24T09:14:14.962Z,75.60
2018-04-24T09:16:44.672Z,75.00
2018-04-24T09:19:15.609Z,75.00
2018-04-24T09:21:46.246Z,75.20
2018-04-24T09:24:16.261Z,74.80
2018-04-24T09:26:46.122Z,74.50
2018-04-24T09:29:16.290Z,74.50
2018-04-24T09:31:46.203Z,74.60
2018-04-24T09:34:16.529Z,74.40
2018-04-24T09:36:46.760Z,74.40
2018-04-24T09:39:17.837Z,74.40
2018-04-24T09:41:47.807Z,74.20
2018-04-24T09:44:19.155Z,73.70
2018-04-24T09:46:48.994Z,73.60
2018-04-24T09:49:19.196Z,73.30
2018-04-24T09:51:49.155Z,73.20
2018-04-24T09:54:19.015Z,73.10
2018-04-24T09:56:48.943Z,73.00
2018-04-24T09:59:18.798Z,72.40
2018-04-24T10:01:48.761Z,72.20
2018-04-24T10:04:20.926Z,71.90
2018-04-24T10:06:51.659Z,71.90
2018-04-24T10:09:21.742Z,71.30
2018-04-24T10:11:51.788Z,71.60
2018-04-24T10:14:21.607Z,71.40
2018-04-24T10:16:51.728Z,71.10
2018-04-24T10:19:21.554Z,71.00
2018-04-24T10:21:53.152Z,69.90
2018-04-24T10:24:23.108Z,69.90
2018-04-24T10:26:52.980Z,69.70
2018-04-24T10:29:22.942Z,69.80
2018-04-24T10:31:52.859Z,69.80
2018-04-24T10:34:24.404Z,70.10
2018-04-24T10:36:54.459Z,70.10
2018-04-24T10:39:24.439Z,69.80
2018-04-24T10:41:54.762Z,70.10
2018-04-24T10:44:24.472Z,70.10
2018-04-24T10:46:54.179Z,70.00
2018-04-24T10:49:24.094Z,70.10
2018-04-24T10:51:54.082Z,69.80
2018-04-24T10:54:24.038Z,70.00
2018-04-24T10:56:54.812Z,68.80
2018-04-24T10:59:24.625Z,69.40
2018-04-24T11:01:54.647Z,69.30
2018-04-24T11:04:26.046Z,69.00
2018-04-24T11:06:56.322Z,69.10
2018-04-24T11:09:26.072Z,69.10
2018-04-24T11:11:55.998Z,68.90
2018-04-24T11:14:26.104Z,69.00
2018-04-24T11:16:55.814Z,68.60
2018-04-24T11:19:25.933Z,68.40
2018-04-24T11:21:56.055Z,68.70
2018-04-24T11:24:25.768Z,68.80
2018-04-24T11:26:56.500Z,68.30
2018-04-24T11:29:33.265Z,66.00
2018-04-24T11:32:13.110Z,66.90
2018-04-24T11:34:44.467Z,66.30
2018-04-24T11:37:14.587Z,66.30
2018-04-24T11:39:45.432Z,66.20
2018-04-24T11:42:15.443Z,66.10
2018-04-24T11:44:45.355Z,66.00
2018-04-24T11:47:16.905Z,66.40
2018-04-24T11:49:46.842Z,66.40
2018-04-24T11:52:16.640Z,65.90
2018-04-24T11:54:46.461Z,66.00
2018-04-24T11:57:16.412Z,66.00
2018-04-24T11:59:46.476Z,65.80
2018-04-24T12:02:16.186Z,66.10
2018-04-24T12:04:49.513Z,65.70
2018-04-24T12:07:19.349Z,65.70
2018-04-24T12:09:49.375Z,65.40
2018-04-24T12:12:19.324Z,65.50
2018-04-24T12:14:51.390Z,65.70
2018-04-24T12:17:21.200Z,65.60
2018-04-24T12:19:51.275Z,65.20
2018-04-24T12:22:21.266Z,64.70
2018-04-24T12:24:51.147Z,64.40
2018-04-24T12:27:22.702Z,63.40
2018-04-24T12:29:52.655Z,63.40
2018-04-24T12:32:22.326Z,63.80
2018-04-24T12:34:52.034Z,63.70
2018-04-24T12:37:21.958Z,63.90
2018-04-24T12:39:52.887Z,60.30
2018-04-24T12:42:24.235Z,60.00
2018-04-24T12:44:54.130Z,60.00
2018-04-24T12:47:24.923Z,61.70
2018-04-24T12:49:55.108Z,62.00
2018-04-24T12:52:24.863Z,62.10
2018-04-24T12:54:54.830Z,61.80
2018-04-24T12:57:24.952Z,62.30
2018-04-24T12:59:58.022Z,62.00
2018-04-24T13:02:28.678Z,61.70
2018-04-24T13:04:58.592Z,61.90
2018-04-24T13:07:29.775Z,62.00
2018-04-24T13:09:59.642Z,61.90
2018-04-24T13:12:30.375Z,62.10
2018-04-24T13:15:01.191Z,62.20
2018-04-24T13:17:31.228Z,62.20
2018-04-24T13:20:01.358Z,61.80
2018-04-24T13:22:31.262Z,62.50
2018-04-24T13:25:02.417Z,62.50
2018-04-24T13:27:33.548Z,62.00
2018-04-24T13:30:03.667Z,62.00
2018-04-24T13:32:34.195Z,61.90
2018-04-24T13:35:04.399Z,61.90
2018-04-24T13:37:38.483Z,62.00
2018-04-24T13:40:11.904Z,62.20
2018-04-24T13:42:43.787Z,62.10
2018-04-24T13:45:18.460Z,61.80
2018-04-24T13:47:48.182Z,61.80
2018-04-24T13:50:19.988Z,61.50
2018-04-24T13:52:50.677Z,61.80
2018-04-24T13:55:20.632Z,61.90
2018-04-24T13:57:51.933Z,62.00
2018-04-24T14:00:21.897Z,62.00
2018-04-24T14:02:51.702Z,62.10
2018-04-24T14:05:21.515Z,62.00
2018-04-24T14:07:51.511Z,61.70
2018-04-24T14:10:21.649Z,61.80
2018-04-24T14:12:52.434Z,61.60
2018-04-24T14:15:22.297Z,61.80
2018-04-24T14:17:52.007Z,61.80
2018-04-24T14:20:23.358Z,61.90
2018-04-24T14:22:54.091Z,61.90
2018-04-24T14:25:24.207Z,62.60
2018-04-24T14:27:55.764Z,62.10
2018-04-24T14:30:25.682Z,62.00
2018-04-24T14:32:56.618Z,62.20
2018-04-24T14:35:33.655Z,59.70
2018-04-24T14:38:11.258Z,60.30
2018-04-24T14:40:41.715Z,61.50
2018-04-24T14:43:11.676Z,61.60
2018-04-24T14:45:41.545Z,62.10
2018-04-24T14:48:11.691Z,61.50
2018-04-24T14:50:42.200Z,61.60
2018-04-24T14:53:19.326Z,61.50
2018-04-24T14:55:50.212Z,61.20
2018-04-24T14:58:19.882Z,61.60
2018-04-24T15:00:49.634Z,62.00
2018-04-24T15:03:19.548Z,62.10
2018-04-24T15:05:49.462Z,62.20
2018-04-24T15:08:19.174Z,62.00
2018-04-24T15:10:49.018Z,61.70
2018-04-24T15:13:18.999Z,59.60
2018-04-24T15:15:48.708Z,58.70
2018-04-24T15:18:20.059Z,58.60
2018-04-24T15:20:49.767Z,58.60
2018-04-24T15:23:19.679Z,57.90
2018-04-24T15:25:49.555Z,59.20
2018-04-24T15:28:19.714Z,60.70
2018-04-24T15:30:49.694Z,60.20
2018-04-24T15:33:19.808Z,60.40
2018-04-24T15:35:49.662Z,60.20
2018-04-24T15:38:19.540Z,59.80
2018-04-24T15:40:49.693Z,60.10
2018-04-24T15:43:19.576Z,60.20
2018-04-24T15:45:49.604Z,60.20
2018-04-24T15:48:34.185Z,59.60
2018-04-24T15:51:04.462Z,59.90
2018-04-24T15:53:34.214Z,60.00
2018-04-24T15:56:03.921Z,60.20
2018-04-24T15:58:33.590Z,60.30
2018-04-24T16:01:03.554Z,60.30
2018-04-24T16:03:33.870Z,60.60
2018-04-24T16:06:05.842Z,60.80
2018-04-24T16:08:35.747Z,60.70
2018-04-24T16:11:05.667Z,60.70
2018-04-24T16:13:35.694Z,60.70
2018-04-24T16:16:06.384Z,61.00
2018-04-24T16:18:36.635Z,60.90
2018-04-24T16:21:06.957Z,60.90
2018-04-24T16:23:39.128Z,61.10
2018-04-24T16:26:10.843Z,61.00
2018-04-24T16:28:40.797Z,61.00
2018-04-24T16:31:12.344Z,60.90
2018-04-24T16:33:42.395Z,60.90
2018-04-24T16:36:12.999Z,61.00
2018-04-24T16:38:42.912Z,61.00
2018-04-24T16:41:13.034Z,61.30
2018-04-24T16:43:46.962Z,61.30
2018-04-24T16:46:17.978Z,61.30
2018-04-24T16:48:47.824Z,61.30
2018-04-24T16:51:17.723Z,61.30
2018-04-24T16:53:48.428Z,61.40
2018-04-24T16:56:18.351Z,61.40
2018-04-24T16:58:49.159Z,61.80
2018-04-24T17:01:19.040Z,61.40
2018-04-24T17:03:49.480Z,61.00
2018-04-24T17:06:19.391Z,61.20
2018-04-24T17:08:49.459Z,61.10
2018-04-24T17:11:20.669Z,61.60
2018-04-24T17:13:50.723Z,60.90
2018-04-24T17:16:21.021Z,61.00
2018-04-24T17:18:50.755Z,60.80
2018-04-24T17:21:21.081Z,60.70
2018-04-24T17:23:50.998Z,60.60
2018-04-24T17:26:20.703Z,60.40
2018-04-24T17:28:50.620Z,60.50
2018-04-24T17:31:20.530Z,60.40
2018-04-24T17:33:50.650Z,60.00
2018-04-24T17:36:21.182Z,60.50
2018-04-24T17:38:51.187Z,60.40
2018-04-24T17:41:21.421Z,60.20
2018-04-24T17:43:51.544Z,60.30
2018-04-24T17:46:21.722Z,60.10
2018-04-24T17:48:52.189Z,60.20
2018-04-24T17:51:27.883Z,60.20
2018-04-24T17:53:59.599Z,60.00
2018-04-24T17:56:29.514Z,59.80
2018-04-24T17:59:00.131Z,60.20
2018-04-24T18:01:30.089Z,60.20
2018-04-24T18:03:59.958Z,60.40
2018-04-24T18:06:29.992Z,60.00
2018-04-24T18:09:01.341Z,60.10
2018-04-24T18:11:31.255Z,60.00
2018-04-24T18:14:01.162Z,60.30
2018-04-24T18:16:31.282Z,60.00
2018-04-24T18:19:01.841Z,60.10
2018-04-24T18:21:31.909Z,60.40
2018-04-24T18:24:02.433Z,60.00
2018-04-24T18:26:32.705Z,60.20
2018-04-24T18:29:03.265Z,60.10
2018-04-24T18:31:33.427Z,60.10
2018-04-24T18:34:03.236Z,59.90
2018-04-24T18:36:35.214Z,60.10
2018-04-24T18:39:09.685Z,60.10
2018-04-24T18:41:39.808Z,60.10
2018-04-24T18:44:09.740Z,60.10
2018-04-24T18:46:40.812Z,60.30
2018-04-24T18:49:11.637Z,60.00
2018-04-24T18:51:43.800Z,60.30
2018-04-24T18:54:15.199Z,60.00
2018-04-24T18:56:45.069Z,60.00
2018-04-24T18:59:15.062Z,60.10
2018-04-24T19:01:44.890Z,60.00
2018-04-24T19:04:14.904Z,60.60
2018-04-24T19:06:45.752Z,60.50
2018-04-24T19:09:15.834Z,60.30
2018-04-24T19:11:46.595Z,60.00
2018-04-24T19:14:20.809Z,60.70
2018-04-24T19:16:50.929Z,60.10
2018-04-24T19:19:26.577Z,60.20
2018-04-24T19:21:56.650Z,60.10
2018-04-24T19:24:31.942Z,60.10
2018-04-24T19:27:02.026Z,60.00
2018-04-24T19:29:32.158Z,60.10
2018-04-24T19:32:07.626Z,60.30
2018-04-24T19:34:37.537Z,60.40
2018-04-24T19:37:07.452Z,60.40
2018-04-24T19:39:41.677Z,60.70
2018-04-24T19:42:11.988Z,60.80
2018-04-24T19:44:42.034Z,60.90
2018-04-24T19:47:12.838Z,61.00
2018-04-24T19:50:49.518Z,61.00
2018-04-24T19:53:19.691Z,61.00
2018-04-24T19:55:52.964Z,61.30
2018-04-24T19:58:26.434Z,61.40
2018-04-24T20:00:58.815Z,61.80
2018-04-24T20:03:28.869Z,61.70
2018-04-24T20:05:58.939Z,61.40
2018-04-24T20:08:28.927Z,61.60
2018-04-24T20:10:59.074Z,61.90
2018-04-24T20:13:29.077Z,62.10
2018-04-24T20:15:58.983Z,61.90
2018-04-24T20:18:30.248Z,62.40
2018-04-24T20:21:00.164Z,62.40
2018-04-24T20:23:30.467Z,62.40
2018-04-24T20:26:00.407Z,62.50
2018-04-24T20:28:30.481Z,62.70
2018-04-24T20:31:01.255Z,63.10
2018-04-24T20:33:31.373Z,63.10
2018-04-24T20:36:02.529Z,63.20
2018-04-24T20:38:32.692Z,63.20
2018-04-24T20:41:02.549Z,63.30
2018-04-24T20:43:32.464Z,63.50
2018-04-24T20:46:02.389Z,63.60
2018-04-24T20:48:32.292Z,63.50
2018-04-24T20:51:02.278Z,63.50
2018-04-24T20:53:32.254Z,63.60
2018-04-24T20:56:02.831Z,63.60
2018-04-24T20:58:32.938Z,63.60
2018-04-24T21:01:02.934Z,63.90
2018-04-24T21:03:33.433Z,64.00
2018-04-24T21:06:03.310Z,63.80
2018-04-24T21:08:33.408Z,63.90
2018-04-24T21:11:03.364Z,64.00
2018-04-24T21:13:33.277Z,64.10
2018-04-24T21:16:03.145Z,64.20
2018-04-24T21:18:33.933Z,64.10
2018-04-24T21:21:05.270Z,64.40
2018-04-24T21:23:35.805Z,64.40
2018-04-24T21:26:05.942Z,64.10
2018-04-24T21:28:35.890Z,64.50
2018-04-24T21:31:06.160Z,64.40
2018-04-24T21:33:35.870Z,64.40
2018-04-24T21:36:06.344Z,64.60
2018-04-24T21:38:36.116Z,64.80
2018-04-24T21:41:06.017Z,64.60
2018-04-24T21:43:35.943Z,64.90
2018-04-24T21:46:06.464Z,64.90
2018-04-24T21:48:36.177Z,64.80
2018-04-24T21:51:06.093Z,64.90
2018-04-24T21:53:36.007Z,64.80
2018-04-24T21:56:05.921Z,64.90
2018-04-24T21:58:40.682Z,65.30
2018-04-24T22:01:10.457Z,64.90
2018-04-24T22:03:41.805Z,65.40
2018-04-24T22:06:11.723Z,65.40
2018-04-24T22:08:41.584Z,65.10
2018-04-24T22:11:11.445Z,65.20
2018-04-24T22:13:41.256Z,65.20
2018-04-24T22:16:11.378Z,65.40
2018-04-24T22:18:41.290Z,65.40
2018-04-24T22:21:11.020Z,65.50
2018-04-24T22:23:41.528Z,65.20
2018-04-24T22:26:12.885Z,65.40
2018-04-24T22:28:43.413Z,65.40
2018-04-24T22:31:13.114Z,65.50
2018-04-24T22:33:43.481Z,65.70
2018-04-24T22:36:13.354Z,65.80
2018-04-24T22:38:43.971Z,65.80
2018-04-24T22:41:13.946Z,65.50
2018-04-24T22:43:43.878Z,65.40
2018-04-24T22:46:13.667Z,65.50
2018-04-24T22:48:43.744Z,65.60
2018-04-24T22:51:15.090Z,65.60
2018-04-24T22:53:45.211Z,65.60
2018-04-24T22:56:15.430Z,65.90
2018-04-24T22:58:46.271Z,65.70
2018-04-24T23:01:15.977Z,65.60
2018-04-24T23:03:45.686Z,65.60
2018-04-24T23:06:15.403Z,65.60
2018-04-24T23:08:45.311Z,65.40
2018-04-24T23:11:26.496Z,65.70
2018-04-24T23:14:07.463Z,65.80
2018-04-24T23:16:48.674Z,65.80
2018-04-24T23:19:31.255Z,65.90
2018-04-24T23:22:01.373Z,65.90
2018-04-24T23:24:34.360Z,65.80
2018-04-24T23:27:04.272Z,65.90
2018-04-24T23:29:36.444Z,66.00
2018-04-24T23:32:06.977Z,66.00
2018-04-24T23:34:36.882Z,65.80
2018-04-24T23:37:07.009Z,65.70
2018-04-24T23:39:37.447Z,65.80
2018-04-24T23:42:10.684Z,65.90
2018-04-24T23:44:40.597Z,65.80
2018-04-24T23:47:11.377Z,66.10
2018-04-24T23:49:41.283Z,66.30
2018-04-24T23:52:11.988Z,66.10
2018-04-24T23:54:43.307Z,66.40
2018-04-24T23:57:13.303Z,66.00
2018-04-24T23:59:44.115Z,66.20
